createdAt,value
2023-02-13T00:01:39.929Z,50.50
2023-02-13T00:04:06.653Z,50.50
2023-02-13T00:06:33.358Z,50.40
2023-02-13T00:09:00.112Z,50.50
2023-02-13T00:11:26.841Z,50.40
2023-02-13T00:13:53.557Z,50.50
2023-02-13T00:16:20.222Z,50.40
2023-02-13T00:18:46.941Z,50.40
2023-02-13T00:21:13.735Z,50.40
2023-02-13T00:23:40.439Z,50.40
2023-02-13T00:26:08.008Z,50.40
2023-02-13T00:28:34.797Z,50.40
2023-02-13T00:31:07.456Z,50.40
2023-02-13T00:33:34.171Z,50.40
2023-02-13T00:36:08.030Z,50.30
2023-02-13T00:38:34.944Z,50.40
2023-02-13T00:41:01.665Z,50.40
2023-02-13T00:43:28.312Z,50.40
2023-02-13T00:45:55.127Z,50.30
2023-02-13T00:48:21.758Z,50.30
2023-02-13T00:50:48.436Z,50.30
2023-02-13T00:53:15.129Z,50.30
2023-02-13T00:55:41.854Z,50.30
2023-02-13T00:58:08.605Z,50.20
2023-02-13T01:00:35.387Z,50.20
2023-02-13T01:03:02.155Z,50.30
2023-02-13T01:05:28.972Z,50.20
2023-02-13T01:07:55.814Z,50.20
2023-02-13T01:10:22.580Z,50.20
2023-02-13T01:12:49.251Z,50.10
2023-02-13T01:15:16.012Z,50.30
2023-02-13T01:17:42.652Z,50.30
2023-02-13T01:20:10.165Z,50.20
2023-02-13T01:22:36.865Z,50.40
2023-02-13T01:25:03.761Z,50.20
2023-02-13T01:27:30.536Z,50.20
2023-02-13T01:29:57.211Z,50.20
2023-02-13T01:32:23.919Z,50.10
2023-02-13T01:34:50.643Z,50.20
2023-02-13T01:37:17.528Z,50.00
2023-02-13T01:39:44.257Z,50.10
2023-02-13T01:42:31.185Z,50.10
2023-02-13T01:44:58.651Z,50.00
2023-02-13T01:47:28.406Z,50.10
2023-02-13T01:50:15.374Z,50.00
2023-02-13T01:52:52.712Z,50.00
2023-02-13T01:55:19.413Z,50.60
2023-02-13T01:57:47.970Z,50.00
2023-02-13T02:00:15.046Z,50.00
2023-02-13T02:02:42.980Z,50.00
2023-02-13T02:05:09.662Z,50.00
2023-02-13T02:07:36.398Z,50.00
2023-02-13T02:10:05.168Z,50.00
2023-02-13T02:12:34.930Z,50.00
2023-02-13T02:15:01.618Z,50.00
2023-02-13T02:17:28.311Z,50.00
2023-02-13T02:19:58.004Z,50.00
2023-02-13T02:22:43.118Z,50.00
2023-02-13T02:25:24.665Z,50.00
2023-02-13T02:28:10.241Z,50.00
2023-02-13T02:30:56.302Z,50.00
2023-02-13T02:33:23.248Z,50.00
2023-02-13T02:36:08.639Z,50.00
2023-02-13T02:38:35.315Z,50.00
2023-02-13T02:41:05.660Z,50.00
2023-02-13T02:43:51.130Z,50.00
2023-02-13T02:46:36.899Z,50.00
2023-02-13T02:49:26.321Z,50.00
2023-02-13T02:51:53.016Z,50.00
2023-02-13T02:54:40.819Z,50.00
2023-02-13T02:57:08.977Z,50.00
2023-02-13T02:59:54.446Z,50.00
2023-02-13T03:02:39.856Z,49.90
2023-02-13T03:05:27.900Z,49.90
2023-02-13T03:07:54.603Z,49.80
2023-02-13T03:10:42.507Z,49.80
2023-02-13T03:13:28.609Z,49.70
2023-02-13T03:16:15.454Z,49.70
2023-02-13T03:19:01.888Z,49.70
2023-02-13T03:22:06.311Z,49.70
2023-02-13T03:24:51.551Z,49.70
2023-02-13T03:27:52.262Z,49.80
2023-02-13T03:30:24.501Z,49.80
2023-02-13T03:33:05.064Z,49.90
2023-02-13T03:35:58.793Z,50.00
2023-02-13T03:38:35.583Z,49.80
2023-02-13T03:41:21.059Z,49.80
2023-02-13T03:44:06.548Z,49.80
2023-02-13T03:46:37.942Z,49.90
2023-02-13T03:49:30.677Z,49.80
2023-02-13T03:52:05.544Z,49.80
2023-02-13T03:54:58.583Z,49.80
2023-02-13T03:57:43.977Z,49.70
2023-02-13T04:00:11.589Z,49.80
2023-02-13T04:02:40.955Z,49.70
2023-02-13T04:05:08.923Z,49.60
2023-02-13T04:07:35.667Z,49.70
2023-02-13T04:10:02.380Z,49.60
2023-02-13T04:12:47.788Z,49.60
2023-02-13T04:15:19.740Z,49.70
2023-02-13T04:17:50.936Z,49.60
2023-02-13T04:20:18.204Z,49.60
2023-02-13T04:22:45.212Z,49.70
2023-02-13T04:25:12.019Z,49.60
2023-02-13T04:27:38.732Z,49.50
2023-02-13T04:30:06.237Z,49.50
2023-02-13T04:32:32.929Z,49.50
2023-02-13T04:34:59.624Z,49.50
2023-02-13T04:37:26.415Z,49.50
2023-02-13T04:39:53.081Z,49.50
2023-02-13T04:42:19.779Z,49.50
2023-02-13T04:44:46.444Z,49.50
2023-02-13T04:47:13.156Z,49.50
2023-02-13T04:49:39.810Z,49.50
2023-02-13T04:52:06.567Z,49.50
2023-02-13T04:54:33.247Z,49.50
2023-02-13T04:56:59.919Z,49.50
2023-02-13T04:59:26.622Z,49.50
2023-02-13T05:01:54.321Z,49.60
2023-02-13T05:04:21.115Z,49.50
2023-02-13T05:06:47.853Z,49.50
2023-02-13T05:09:14.556Z,49.50
2023-02-13T05:11:41.285Z,49.40
2023-02-13T05:14:07.965Z,49.50
2023-02-13T05:16:34.696Z,49.40
2023-02-13T05:19:01.398Z,49.30
2023-02-13T05:21:46.813Z,49.40
2023-02-13T05:24:13.489Z,49.30
2023-02-13T05:26:40.170Z,49.30
2023-02-13T05:29:19.047Z,49.20
2023-02-13T05:31:49.283Z,49.30
2023-02-13T05:34:16.150Z,49.20
2023-02-13T05:36:42.892Z,49.30
2023-02-13T05:39:09.898Z,49.40
2023-02-13T05:41:36.594Z,49.30
2023-02-13T05:44:03.449Z,49.40
2023-02-13T05:46:30.456Z,49.30
2023-02-13T05:48:57.242Z,49.30
2023-02-13T05:51:23.922Z,49.30
2023-02-13T05:53:50.639Z,49.30
2023-02-13T05:56:17.351Z,49.40
2023-02-13T05:58:45.218Z,49.40
2023-02-13T06:01:11.978Z,49.40
2023-02-13T06:03:40.416Z,49.40
2023-02-13T06:06:07.243Z,49.40
2023-02-13T06:08:33.958Z,49.40
2023-02-13T06:11:00.861Z,49.50
2023-02-13T06:13:27.762Z,49.60
2023-02-13T06:15:54.482Z,49.50
2023-02-13T06:18:21.390Z,49.00
2023-02-13T06:20:48.064Z,49.70
2023-02-13T06:23:14.772Z,49.70
2023-02-13T06:25:41.464Z,49.90
2023-02-13T06:28:08.192Z,49.70
2023-02-13T06:30:34.967Z,50.00
2023-02-13T06:33:01.679Z,49.80
2023-02-13T06:35:28.388Z,49.70
2023-02-13T06:37:55.198Z,49.70
2023-02-13T06:40:23.143Z,49.70
2023-02-13T06:42:49.800Z,49.60
2023-02-13T06:45:16.607Z,49.60
2023-02-13T06:47:44.021Z,49.50
2023-02-13T06:50:11.140Z,49.70
2023-02-13T06:52:37.931Z,49.40
2023-02-13T06:55:05.289Z,49.60
2023-02-13T06:57:34.943Z,49.50
2023-02-13T07:00:05.782Z,49.40
2023-02-13T07:02:33.042Z,49.40
2023-02-13T07:04:59.768Z,49.40
2023-02-13T07:07:26.441Z,49.50
2023-02-13T07:09:53.147Z,49.40
2023-02-13T07:12:19.837Z,49.40
2023-02-13T07:14:46.547Z,49.50
2023-02-13T07:17:13.201Z,49.40
2023-02-13T07:19:39.934Z,49.40
2023-02-13T07:22:06.750Z,49.30
2023-02-13T07:24:35.446Z,49.20
2023-02-13T07:27:02.152Z,49.30
2023-02-13T07:29:28.901Z,49.40
2023-02-13T07:31:55.701Z,49.40
2023-02-13T07:34:22.436Z,49.20
2023-02-13T07:36:49.272Z,49.20
2023-02-13T07:39:16.197Z,49.20
2023-02-13T07:41:42.896Z,49.20
2023-02-13T07:44:09.691Z,49.30
2023-02-13T07:46:36.693Z,49.20
2023-02-13T07:49:03.494Z,49.20
2023-02-13T07:51:30.212Z,49.20
2023-02-13T07:53:57.677Z,49.10
2023-02-13T07:56:24.529Z,49.80
2023-02-13T07:58:51.210Z,49.20
2023-02-13T08:01:19.523Z,49.20
2023-02-13T08:03:52.897Z,49.20
2023-02-13T08:06:19.817Z,49.10
2023-02-13T08:08:46.680Z,49.20
2023-02-13T08:11:42.448Z,49.10
2023-02-13T08:14:09.660Z,49.20
2023-02-13T08:16:36.500Z,49.10
2023-02-13T08:19:03.284Z,49.20
2023-02-13T08:21:30.617Z,49.10
2023-02-13T08:23:57.414Z,49.10
2023-02-13T08:26:27.925Z,49.00
2023-02-13T08:28:55.183Z,49.00
2023-02-13T08:31:22.220Z,49.00
2023-02-13T08:33:49.274Z,48.90
2023-02-13T08:36:16.038Z,49.00
2023-02-13T08:38:42.709Z,48.90
2023-02-13T08:41:09.455Z,48.90
2023-02-13T08:43:36.248Z,48.90
2023-02-13T08:46:03.210Z,48.80
2023-02-13T08:48:30.145Z,48.80
2023-02-13T08:50:57.164Z,48.80
2023-02-13T08:53:23.905Z,48.80
2023-02-13T08:55:57.701Z,48.70
2023-02-13T08:58:25.022Z,48.70
2023-02-13T09:00:52.043Z,48.80
2023-02-13T09:03:19.100Z,48.80
2023-02-13T09:05:46.075Z,48.60
2023-02-13T09:08:13.844Z,48.60
2023-02-13T09:10:41.899Z,48.70
2023-02-13T09:13:08.631Z,48.60
2023-02-13T09:15:37.954Z,48.60
2023-02-13T09:18:04.966Z,48.50
2023-02-13T09:20:32.025Z,48.60
2023-02-13T09:22:58.702Z,48.50
2023-02-13T09:25:25.883Z,48.60
2023-02-13T09:27:52.927Z,48.60
2023-02-13T09:30:25.852Z,48.60
2023-02-13T09:32:53.148Z,48.60
2023-02-13T09:35:20.037Z,48.50
2023-02-13T09:37:46.826Z,48.50
2023-02-13T09:40:16.490Z,48.50
2023-02-13T09:42:43.256Z,48.50
2023-02-13T09:45:11.002Z,48.50
2023-02-13T09:47:39.496Z,48.50
2023-02-13T09:50:12.618Z,48.50
2023-02-13T09:52:39.597Z,48.50
2023-02-13T09:55:19.484Z,48.50
2023-02-13T09:57:46.408Z,48.50
2023-02-13T10:00:15.845Z,48.50
2023-02-13T10:03:02.808Z,48.50
2023-02-13T10:05:48.481Z,48.40
2023-02-13T10:08:21.438Z,48.40
2023-02-13T10:11:04.075Z,49.00
2023-02-13T10:13:54.242Z,48.30
2023-02-13T10:16:21.673Z,48.30
2023-02-13T10:18:49.806Z,48.40
2023-02-13T10:21:18.929Z,48.30
2023-02-13T10:23:50.443Z,48.30
2023-02-13T10:26:20.322Z,48.40
2023-02-13T10:29:08.221Z,48.30
2023-02-13T10:31:35.691Z,48.40
2023-02-13T10:34:03.003Z,48.40
2023-02-13T10:36:34.330Z,48.30
2023-02-13T10:39:02.130Z,48.40
2023-02-13T10:41:34.941Z,48.30
2023-02-13T10:44:16.944Z,48.30
2023-02-13T10:46:44.113Z,48.20
2023-02-13T10:49:20.690Z,48.20
2023-02-13T10:51:56.349Z,48.20
2023-02-13T10:54:33.755Z,48.30
2023-02-13T10:57:06.576Z,48.20
2023-02-13T10:59:42.889Z,48.80
2023-02-13T11:02:23.166Z,48.20
2023-02-13T11:04:50.912Z,48.20
2023-02-13T11:07:18.350Z,48.80
2023-02-13T11:09:45.373Z,48.30
2023-02-13T11:12:31.238Z,48.20
2023-02-13T11:14:58.821Z,48.30
2023-02-13T11:17:25.913Z,48.20
2023-02-13T11:19:56.610Z,48.20
2023-02-13T11:22:36.750Z,48.20
2023-02-13T11:25:07.060Z,48.20
2023-02-13T11:27:34.938Z,48.10
2023-02-13T11:30:27.950Z,48.10
2023-02-13T11:33:14.919Z,48.10
2023-02-13T11:35:41.668Z,48.20
2023-02-13T11:38:11.543Z,48.10
2023-02-13T11:40:38.235Z,48.10
2023-02-13T11:43:08.038Z,48.10
2023-02-13T11:45:34.708Z,48.10
2023-02-13T11:48:08.414Z,48.00
2023-02-13T11:50:35.231Z,48.10
2023-02-13T11:53:04.471Z,48.10
2023-02-13T11:55:32.483Z,48.00
2023-02-13T11:58:00.340Z,47.70
2023-02-13T12:00:42.662Z,48.00
2023-02-13T12:03:21.788Z,48.00
2023-02-13T12:06:07.487Z,47.90
2023-02-13T12:08:35.332Z,48.20
2023-02-13T12:11:02.427Z,48.00
2023-02-13T12:13:39.075Z,48.00
2023-02-13T12:16:26.123Z,48.00
2023-02-13T12:18:56.519Z,48.00
2023-02-13T12:21:29.381Z,48.00
2023-02-13T12:23:58.097Z,48.00
2023-02-13T12:26:27.020Z,48.00
2023-02-13T12:28:58.153Z,48.60
2023-02-13T12:31:28.275Z,48.00
2023-02-13T12:34:07.146Z,48.00
2023-02-13T12:36:52.390Z,47.90
2023-02-13T12:39:19.267Z,48.00
2023-02-13T12:41:50.864Z,48.00
2023-02-13T12:44:32.809Z,48.00
2023-02-13T12:47:07.710Z,48.00
2023-02-13T12:49:34.419Z,48.60
2023-02-13T12:52:11.068Z,47.80
2023-02-13T12:54:57.485Z,47.90
2023-02-13T12:57:27.185Z,47.90
2023-02-13T12:59:54.515Z,47.80
2023-02-13T13:02:21.694Z,47.90
2023-02-13T13:04:54.671Z,47.80
2023-02-13T13:07:30.582Z,47.90
2023-02-13T13:10:03.866Z,47.80
2023-02-13T13:12:33.126Z,47.80
2023-02-13T13:15:15.604Z,47.80
2023-02-13T13:17:51.400Z,47.70
2023-02-13T13:20:27.164Z,47.90
2023-02-13T13:22:54.367Z,47.80
2023-02-13T13:25:44.411Z,47.90
2023-02-13T13:28:22.041Z,47.80
2023-02-13T13:30:48.828Z,47.90
2023-02-13T13:33:17.377Z,47.80
2023-02-13T13:35:55.771Z,47.80
2023-02-13T13:38:30.452Z,47.90
2023-02-13T13:40:57.432Z,47.70
2023-02-13T13:43:29.442Z,47.70
2023-02-13T13:46:04.085Z,47.70
2023-02-13T13:48:43.616Z,47.70
2023-02-13T13:51:10.893Z,47.70
2023-02-13T13:53:39.211Z,47.70
2023-02-13T13:56:07.976Z,47.80
2023-02-13T13:58:37.719Z,47.70
2023-02-13T14:01:21.296Z,47.70
2023-02-13T14:03:52.064Z,47.70
2023-02-13T14:06:19.681Z,47.70
2023-02-13T14:08:47.684Z,47.80
2023-02-13T14:11:33.633Z,47.80
2023-02-13T14:14:26.402Z,47.80
2023-02-13T14:16:53.170Z,47.70
2023-02-13T14:19:29.046Z,47.70
2023-02-13T14:22:22.519Z,46.90
2023-02-13T14:24:55.983Z,46.80
2023-02-13T14:27:25.832Z,47.40
2023-02-13T14:29:52.608Z,46.80
2023-02-13T14:32:41.217Z,46.90
2023-02-13T14:35:14.166Z,47.20
2023-02-13T14:37:51.106Z,47.30
2023-02-13T14:40:17.846Z,46.90
2023-02-13T14:42:45.061Z,47.40
2023-02-13T14:45:18.904Z,47.30
2023-02-13T14:47:50.943Z,47.40
2023-02-13T14:50:28.056Z,47.40
2023-02-13T14:52:55.393Z,46.90
2023-02-13T14:55:35.525Z,47.00
2023-02-13T14:58:07.176Z,47.10
2023-02-13T15:00:41.654Z,47.30
2023-02-13T15:03:13.980Z,47.10
2023-02-13T15:05:40.692Z,47.20
2023-02-13T15:08:13.479Z,47.30
2023-02-13T15:10:41.406Z,47.30
2023-02-13T15:13:21.461Z,47.40
2023-02-13T15:15:52.107Z,47.30
2023-02-13T15:18:22.845Z,47.20
2023-02-13T15:20:49.555Z,47.40
2023-02-13T15:23:23.135Z,47.40
2023-02-13T15:25:56.122Z,47.50
2023-02-13T15:28:29.021Z,47.50
2023-02-13T15:30:57.456Z,47.60
2023-02-13T15:33:24.925Z,47.70
2023-02-13T15:36:01.623Z,47.50
2023-02-13T15:38:32.270Z,47.60
2023-02-13T15:41:00.807Z,47.60
2023-02-13T15:43:34.745Z,47.80
2023-02-13T15:46:03.521Z,47.70
2023-02-13T15:48:32.863Z,47.80
2023-02-13T15:51:00.217Z,47.80
2023-02-13T15:53:27.951Z,47.70
2023-02-13T15:55:58.725Z,47.80
2023-02-13T15:58:26.302Z,47.70
2023-02-13T16:00:54.688Z,47.70
2023-02-13T16:03:21.774Z,47.70
2023-02-13T16:05:49.403Z,47.60
2023-02-13T16:08:28.928Z,48.30
2023-02-13T16:11:11.834Z,47.80
2023-02-13T16:13:38.746Z,47.70
2023-02-13T16:16:08.523Z,47.70
2023-02-13T16:18:35.233Z,47.80
2023-02-13T16:21:01.964Z,47.80
2023-02-13T16:23:31.005Z,47.80
2023-02-13T16:26:01.262Z,47.80
2023-02-13T16:28:27.923Z,47.70
2023-02-13T16:30:57.104Z,47.00
2023-02-13T16:33:27.416Z,47.40
2023-02-13T16:35:55.357Z,47.70
2023-02-13T16:38:28.264Z,47.60
2023-02-13T16:40:55.759Z,47.70
2023-02-13T16:43:41.430Z,47.80
2023-02-13T16:46:14.496Z,47.80
2023-02-13T16:48:42.273Z,47.80
2023-02-13T16:51:09.022Z,48.60
2023-02-13T16:53:35.739Z,48.10
2023-02-13T16:56:08.846Z,48.50
2023-02-13T16:58:35.521Z,48.00
2023-02-13T17:01:02.759Z,48.00
2023-02-13T17:03:29.516Z,48.60
2023-02-13T17:05:56.253Z,48.00
2023-02-13T17:08:22.937Z,48.00
2023-02-13T17:11:03.669Z,48.00
2023-02-13T17:13:30.400Z,48.00
2023-02-13T17:15:59.438Z,48.50
2023-02-13T17:18:26.711Z,48.00
2023-02-13T17:20:53.421Z,47.90
2023-02-13T17:23:22.712Z,47.90
2023-02-13T17:25:52.651Z,48.00
2023-02-13T17:28:23.315Z,48.00
2023-02-13T17:30:53.114Z,48.10
2023-02-13T17:33:24.619Z,48.00
2023-02-13T17:35:51.680Z,48.10
2023-02-13T17:38:18.490Z,48.10
2023-02-13T17:40:45.376Z,48.00
2023-02-13T17:43:12.630Z,48.10
2023-02-13T17:45:39.892Z,48.10
2023-02-13T17:48:06.615Z,48.10
2023-02-13T17:50:33.602Z,48.00
2023-02-13T17:53:04.306Z,48.10
2023-02-13T17:55:31.237Z,48.00
2023-02-13T17:57:58.299Z,48.10
2023-02-13T18:00:25.901Z,48.30
2023-02-13T18:02:52.618Z,48.10
2023-02-13T18:05:19.416Z,48.10
2023-02-13T18:07:46.610Z,48.10
2023-02-13T18:10:33.353Z,48.00
2023-02-13T18:13:04.540Z,48.10
2023-02-13T18:15:32.136Z,48.00
2023-02-13T18:17:58.855Z,48.10
2023-02-13T18:20:25.595Z,48.10
2023-02-13T18:22:52.444Z,48.00
2023-02-13T18:25:19.566Z,48.10
2023-02-13T18:27:46.381Z,48.10
2023-02-13T18:30:14.101Z,48.20
2023-02-13T18:32:41.480Z,48.10
2023-02-13T18:35:08.280Z,48.10
2023-02-13T18:37:35.348Z,48.10
2023-02-13T18:40:08.072Z,48.10
2023-02-13T18:42:36.247Z,48.90
2023-02-13T18:45:03.346Z,48.20
2023-02-13T18:47:30.108Z,48.30
2023-02-13T18:49:56.909Z,48.40
2023-02-13T18:52:23.723Z,48.40
2023-02-13T18:54:51.192Z,48.50
2023-02-13T18:57:17.943Z,48.50
2023-02-13T18:59:44.671Z,49.10
2023-02-13T19:02:11.429Z,48.60
2023-02-13T19:04:38.359Z,48.50
2023-02-13T19:07:05.188Z,48.60
2023-02-13T19:09:31.873Z,48.60
2023-02-13T19:11:58.606Z,48.70
2023-02-13T19:14:26.787Z,48.80
2023-02-13T19:16:53.573Z,48.80
2023-02-13T19:19:20.329Z,48.80
2023-02-13T19:21:47.111Z,48.80
2023-02-13T19:24:15.549Z,49.00
2023-02-13T19:26:42.441Z,48.80
2023-02-13T19:29:09.170Z,49.00
2023-02-13T19:31:36.519Z,48.90
2023-02-13T19:34:05.822Z,49.00
2023-02-13T19:36:32.652Z,49.10
2023-02-13T19:39:00.278Z,49.00
2023-02-13T19:41:27.047Z,49.60
2023-02-13T19:43:53.807Z,49.00
2023-02-13T19:46:21.611Z,49.00
2023-02-13T19:48:48.458Z,49.00
2023-02-13T19:51:22.267Z,49.00
2023-02-13T19:53:51.995Z,49.10
2023-02-13T19:56:18.722Z,49.10
2023-02-13T19:58:45.399Z,49.20
2023-02-13T20:01:13.425Z,49.10
2023-02-13T20:03:40.450Z,49.20
2023-02-13T20:06:09.970Z,49.20
2023-02-13T20:08:36.813Z,49.10
2023-02-13T20:11:03.584Z,49.10
2023-02-13T20:13:32.013Z,49.20
2023-02-13T20:15:58.874Z,49.10
2023-02-13T20:18:25.616Z,49.30
2023-02-13T20:20:52.421Z,49.20
2023-02-13T20:23:20.074Z,49.20
2023-02-13T20:25:46.806Z,49.20
2023-02-13T20:28:13.585Z,49.20
2023-02-13T20:30:41.324Z,49.10
2023-02-13T20:33:08.117Z,49.10
2023-02-13T20:35:34.857Z,49.00
2023-02-13T20:38:01.564Z,49.00
2023-02-13T20:40:28.255Z,49.00
2023-02-13T20:42:54.992Z,49.00
2023-02-13T20:45:21.812Z,48.90
2023-02-13T20:47:48.818Z,48.90
2023-02-13T20:50:15.668Z,48.80
2023-02-13T20:52:42.497Z,48.80
2023-02-13T20:55:10.254Z,48.70
2023-02-13T20:57:37.001Z,48.70
2023-02-13T21:00:07.305Z,48.70
2023-02-13T21:02:34.057Z,48.70
2023-02-13T21:05:00.816Z,48.70
2023-02-13T21:07:27.690Z,48.60
2023-02-13T21:09:54.993Z,48.60
2023-02-13T21:12:21.704Z,48.60
2023-02-13T21:14:49.416Z,48.60
2023-02-13T21:17:16.151Z,48.70
2023-02-13T21:19:42.835Z,48.50
2023-02-13T21:22:12.692Z,48.60
2023-02-13T21:24:39.862Z,48.50
2023-02-13T21:27:06.587Z,48.50
2023-02-13T21:29:33.298Z,48.40
2023-02-13T21:32:00.042Z,48.50
2023-02-13T21:34:26.777Z,48.40
2023-02-13T21:36:53.551Z,48.40
2023-02-13T21:39:20.246Z,48.30
2023-02-13T21:41:46.986Z,48.80
2023-02-13T21:44:14.621Z,48.20
2023-02-13T21:46:41.771Z,48.30
2023-02-13T21:49:08.481Z,48.20
2023-02-13T21:51:35.499Z,48.20
2023-02-13T21:54:02.585Z,48.10
2023-02-13T21:56:30.034Z,48.10
2023-02-13T21:58:56.825Z,48.20
2023-02-13T22:01:30.554Z,48.10
2023-02-13T22:04:00.505Z,48.30
2023-02-13T22:06:28.231Z,48.10
2023-02-13T22:08:58.465Z,48.20
2023-02-13T22:11:25.319Z,48.10
2023-02-13T22:13:56.021Z,48.10
2023-02-13T22:16:22.935Z,48.70
2023-02-13T22:18:50.678Z,48.00
2023-02-13T22:21:18.276Z,48.00
2023-02-13T22:23:45.308Z,48.00
2023-02-13T22:26:22.077Z,48.00
2023-02-13T22:28:49.071Z,48.70
2023-02-13T22:31:16.136Z,48.10
2023-02-13T22:33:45.424Z,48.00
2023-02-13T22:36:14.287Z,48.10
2023-02-13T22:38:41.044Z,48.00
2023-02-13T22:41:08.415Z,48.00
2023-02-13T22:43:35.188Z,48.10
2023-02-13T22:46:02.658Z,48.00
2023-02-13T22:48:29.368Z,48.00
2023-02-13T22:50:56.229Z,48.10
2023-02-13T22:53:23.104Z,48.00
2023-02-13T22:55:49.884Z,48.00
2023-02-13T22:58:16.671Z,48.00
2023-02-13T23:00:43.396Z,47.90
2023-02-13T23:03:10.157Z,47.90
2023-02-13T23:05:38.863Z,47.90
2023-02-13T23:08:05.660Z,48.30
2023-02-13T23:10:32.405Z,48.00
2023-02-13T23:12:59.478Z,47.90
2023-02-13T23:15:26.601Z,48.00
2023-02-13T23:18:12.128Z,48.00
2023-02-13T23:20:40.283Z,48.00
2023-02-13T23:23:06.973Z,48.00
2023-02-13T23:25:37.345Z,48.00
2023-02-13T23:28:04.673Z,48.00
2023-02-13T23:30:31.688Z,48.70
2023-02-13T23:32:58.729Z,48.10
2023-02-13T23:35:25.552Z,48.00
2023-02-13T23:37:52.488Z,48.00
2023-02-13T23:40:19.300Z,48.00
2023-02-13T23:42:46.029Z,48.00
2023-02-13T23:45:12.866Z,47.90
2023-02-13T23:47:39.614Z,47.90
2023-02-13T23:50:06.561Z,48.00
2023-02-13T23:52:33.237Z,48.00
2023-02-13T23:55:00.029Z,47.90
2023-02-13T23:57:26.722Z,47.90
2023-02-13T23:59:53.791Z,48.00
